หน้าหลัก
METAR-TAF:

METAR-TAF

ท่าอากาศยาน :

ท่าอากาศยานโคเปนเฮเกน

โคเปนเฮเกน, เดนมาร์ก

ละติจูด: 55-37N, ลองจิจูด: 012-39E, ความสูง: 5 ม.

การสังเกตสภาพอากาศปัจจุบัน

รายงานได้ทำขึ้นเมื่อ 50 นาทีที่แล้ว ณ เวลา 02:20 UTC
ลม 7 นอตจากตะวันตก
อุณหภูมิ 14°C
ความชื้น 88%
ความกดอากาศ 1014 hPa
ทัศนวิสัย 10 กม. หรือมากกว่า

METAR: EKCH 250220Z AUTO 27007KT 9999 SCT019/// BKN044/// 14/12 Q1014 NOSIG

เวลา: 05:10 (03:10 UTC)

การพยากรณ์

รายงานได้ทำขึ้นเมื่อ 3 ชั่วโมงและ 54 นาทีที่แล้ว ณ เวลา 23:16 UTC
การพยากรณ์มีผลตั้งแต่วันที่ 25 ณ เวลา 00 UTC จนถึงวันที่ 25 ณ เวลา 24 UTC
ลม 10 นอตจากตะวันตก
ทัศนวิสัย 10 กม. หรือมากกว่า
มีเมฆกระจายเป็นบางส่วนที่ความสูง 4000 ฟุต
กำลังกลายเป็น
ตั้งแต่วันที่ 25 ณ เวลา 16 UTC จนถึงวันที่ 25 ณ เวลา 18 UTC
ลม 5 นอตจากใต้/ตะวันออกเฉียงใต้

TAF: EKCH 242316Z 2500/2524 27010KT 9999 SCT040 BECMG 2516/2518 15005KT

สังเกตการณ์สภาพอากาศและพยากรณ์อากาศของสนามบินมากกว่า 4000 แห่ง (รายงาน METAR และ TAF).

สถานีที่ดูได้จะแสดงไว้ด้วยจุดสีเหลืองและสีแดงบนแผนที่.

เลื่อนเมาส์ไปเหนือจุดเพื่อดูชื่อสถานี.

แล้วคลิกเพื่อดูสังเกตการณ์และการพยากรณ์สภาพอากาศ.

ในการเปลี่ยนแผนที่: คลิกที่ปุ่มสีเขียวที่มีกากบาทสีดำเพื่อซูมเข้า; ที่ปุ่มสีเขียวที่มีขีดเพื่อซูมออก; หรือที่ลูกศรสีเขียวเพื่อไปยังแผนที่ที่อยู่ติดกัน.


METAR-TAF: